sensor_id;sensor_type;location;lat;lon;timestamp;pressure;altitude;pressure_sealevel;temperature;humidity
8334;BME280;4204;43.004;23.052;2023-05-19T00:00:11;94007.50;;;13.39;100.00
8334;BME280;4204;43.004;23.052;2023-05-19T00:02:40;94015.97;;;13.41;100.00
8334;BME280;4204;43.004;23.052;2023-05-19T00:05:10;94010.50;;;13.38;100.00
8334;BME280;4204;43.004;23.052;2023-05-19T00:07:40;94006.13;;;13.33;100.00
8334;BME280;4204;43.004;23.052;2023-05-19T00:10:11;94001.91;;;13.32;100.00
8334;BME280;4204;43.004;23.052;2023-05-19T00:12:39;94002.53;;;13.29;100.00
8334;BME280;4204;43.004;23.052;2023-05-19T00:15:08;93991.66;;;13.14;100.00
8334;BME280;4204;43.004;23.052;2023-05-19T00:17:36;93995.69;;;13.20;100.00
8334;BME280;4204;43.004;23.052;2023-05-19T00:20:08;93990.75;;;13.01;100.00
8334;BME280;4204;43.004;23.052;2023-05-19T00:22:38;93990.59;;;12.97;100.00
8334;BME280;4204;43.004;23.052;2023-05-19T00:25:09;93985.63;;;12.87;100.00
8334;BME280;4204;43.004;23.052;2023-05-19T00:27:37;93993.28;;;12.97;100.00
8334;BME280;4204;43.004;23.052;2023-05-19T00:30:06;93993.88;;;13.03;100.00
8334;BME280;4204;43.004;23.052;2023-05-19T00:32:34;93993.25;;;13.06;100.00
8334;BME280;4204;43.004;23.052;2023-05-19T00:35:02;93996.28;;;12.96;100.00
8334;BME280;4204;43.004;23.052;2023-05-19T00:37:30;93997.81;;;12.76;100.00
8334;BME280;4204;43.004;23.052;2023-05-19T00:39:59;93994.66;;;12.74;100.00
8334;BME280;4204;43.004;23.052;2023-05-19T00:42:27;93995.13;;;12.76;100.00
8334;BME280;4204;43.004;23.052;2023-05-19T00:44:55;93999.41;;;12.60;100.00
8334;BME280;4204;43.004;23.052;2023-05-19T00:47:22;93985.09;;;12.73;100.00
8334;BME280;4204;43.004;23.052;2023-05-19T00:49:50;93989.38;;;12.95;100.00
8334;BME280;4204;43.004;23.052;2023-05-19T00:52:18;93993.72;;;12.99;100.00
8334;BME280;4204;43.004;23.052;2023-05-19T00:54:45;93992.34;;;12.93;100.00
8334;BME280;4204;43.004;23.052;2023-05-19T00:57:15;93987.41;;;13.13;100.00
8334;BME280;4204;43.004;23.052;2023-05-19T00:59:43;93982.91;;;13.05;100.00
8334;BME280;4204;43.004;23.052;2023-05-19T01:02:10;93989.63;;;13.02;100.00
8334;BME280;4204;43.004;23.052;2023-05-19T01:04:38;93980.38;;;12.99;100.00
8334;BME280;4204;43.004;23.052;2023-05-19T01:07:07;93982.75;;;13.01;100.00
8334;BME280;4204;43.004;23.052;2023-05-19T01:09:35;93983.69;;;13.05;100.00
8334;BME280;4204;43.004;23.052;2023-05-19T01:12:04;93991.06;;;12.99;100.00
8334;BME280;4204;43.004;23.052;2023-05-19T01:14:33;93994.03;;;13.07;100.00
8334;BME280;4204;43.004;23.052;2023-05-19T01:17:04;93992.75;;;13.13;100.00
8334;BME280;4204;43.004;23.052;2023-05-19T01:19:46;93988.16;;;13.22;100.00
8334;BME280;4204;43.004;23.052;2023-05-19T01:22:36;94000.88;;;13.16;100.00
8334;BME280;4204;43.004;23.052;2023-05-19T01:25:33;93997.97;;;13.09;100.00
8334;BME280;4204;43.004;23.052;2023-05-19T01:28:47;93998.94;;;13.05;100.00
8334;BME280;4204;43.004;23.052;2023-05-19T01:31:21;93990.81;;;12.92;100.00
8334;BME280;4204;43.004;23.052;2023-05-19T01:33:52;93989.84;;;12.68;100.00
8334;BME280;4204;43.004;23.052;2023-05-19T01:36:21;93978.31;;;12.38;100.00
8334;BME280;4204;43.004;23.052;2023-05-19T01:38:51;93994.59;;;12.54;100.00
8334;BME280;4204;43.004;23.052;2023-05-19T01:41:21;93996.53;;;12.36;100.00
8334;BME280;4204;43.004;23.052;2023-05-19T01:43:51;93987.16;;;12.22;100.00
8334;BME280;4204;43.004;23.052;2023-05-19T01:46:21;93984.97;;;12.24;100.00
8334;BME280;4204;43.004;23.052;2023-05-19T01:48:50;93987.75;;;12.27;100.00
8334;BME280;4204;43.004;23.052;2023-05-19T01:51:19;93989.31;;;12.37;100.00
8334;BME280;4204;43.004;23.052;2023-05-19T01:53:47;93990.72;;;12.43;100.00
8334;BME280;4204;43.004;23.052;2023-05-19T01:56:17;93980.31;;;12.50;100.00
8334;BME280;4204;43.004;23.052;2023-05-19T01:58:52;93987.34;;;12.54;100.00
8334;BME280;4204;43.004;23.052;2023-05-19T02:01:46;93982.94;;;12.58;100.00
8334;BME280;4204;43.004;23.052;2023-05-19T02:04:19;93992.88;;;12.49;100.00
8334;BME280;4204;43.004;23.052;2023-05-19T02:06:56;93984.44;;;12.47;100.00
8334;BME280;4204;43.004;23.052;2023-05-19T02:09:36;93990.03;;;12.54;100.00
8334;BME280;4204;43.004;23.052;2023-05-19T02:12:10;93991.75;;;12.59;100.00
8334;BME280;4204;43.004;23.052;2023-05-19T02:14:49;93990.13;;;12.66;100.00
8334;BME280;4204;43.004;23.052;2023-05-19T02:17:22;93994.25;;;12.64;100.00
8334;BME280;4204;43.004;23.052;2023-05-19T02:19:50;93986.53;;;12.62;100.00
8334;BME280;4204;43.004;23.052;2023-05-19T02:22:18;93989.53;;;12.61;100.00
8334;BME280;4204;43.004;23.052;2023-05-19T02:24:47;93992.69;;;12.54;100.00
8334;BME280;4204;43.004;23.052;2023-05-19T02:27:17;93993.81;;;12.53;100.00
8334;BME280;4204;43.004;23.052;2023-05-19T02:29:44;94001.63;;;12.58;100.00
8334;BME280;4204;43.004;23.052;2023-05-19T02:32:13;93992.22;;;12.52;100.00
8334;BME280;4204;43.004;23.052;2023-05-19T02:34:42;94015.78;;;12.50;100.00
8334;BME280;4204;43.004;23.052;2023-05-19T02:37:11;94004.84;;;12.43;100.00
8334;BME280;4204;43.004;23.052;2023-05-19T02:39:39;94009.56;;;12.29;100.00
8334;BME280;4204;43.004;23.052;2023-05-19T02:42:07;93998.16;;;12.20;100.00
8334;BME280;4204;43.004;23.052;2023-05-19T02:44:37;94003.38;;;12.08;100.00
8334;BME280;4204;43.004;23.052;2023-05-19T02:47:05;94001.44;;;12.17;100.00
8334;BME280;4204;43.004;23.052;2023-05-19T02:49:33;93996.22;;;12.29;100.00
8334;BME280;4204;43.004;23.052;2023-05-19T02:52:03;93997.03;;;12.21;100.00
8334;BME280;4204;43.004;23.052;2023-05-19T02:54:31;93997.22;;;12.16;100.00
8334;BME280;4204;43.004;23.052;2023-05-19T02:56:59;94004.41;;;12.24;100.00
8334;BME280;4204;43.004;23.052;2023-05-19T02:59:27;94006.16;;;12.20;100.00
8334;BME280;4204;43.004;23.052;2023-05-19T03:01:58;94013.03;;;12.21;100.00
8334;BME280;4204;43.004;23.052;2023-05-19T03:04:26;94011.31;;;12.25;100.00
8334;BME280;4204;43.004;23.052;2023-05-19T03:06:54;94018.03;;;12.31;100.00
8334;BME280;4204;43.004;23.052;2023-05-19T03:09:23;94022.75;;;12.34;100.00
8334;BME280;4204;43.004;23.052;2023-05-19T03:11:52;94015.88;;;12.25;100.00
8334;BME280;4204;43.004;23.052;2023-05-19T03:14:19;94028.53;;;12.36;100.00
8334;BME280;4204;43.004;23.052;2023-05-19T03:16:49;94032.94;;;12.32;100.00
8334;BME280;4204;43.004;23.052;2023-05-19T03:19:16;94033.09;;;12.36;100.00
8334;BME280;4204;43.004;23.052;2023-05-19T03:21:44;94031.06;;;12.41;100.00
8334;BME280;4204;43.004;23.052;2023-05-19T03:24:12;94025.56;;;12.29;100.00
8334;BME280;4204;43.004;23.052;2023-05-19T03:26:42;94016.97;;;12.15;100.00
8334;BME280;4204;43.004;23.052;2023-05-19T03:29:10;94029.84;;;12.13;100.00
8334;BME280;4204;43.004;23.052;2023-05-19T03:31:38;94026.72;;;12.02;100.00
8334;BME280;4204;43.004;23.052;2023-05-19T03:34:05;94026.72;;;12.02;100.00
8334;BME280;4204;43.004;23.052;2023-05-19T03:36:33;94023.59;;;11.92;100.00
8334;BME280;4204;43.004;23.052;2023-05-19T03:39:08;94027.22;;;11.70;100.00
8334;BME280;4204;43.004;23.052;2023-05-19T03:41:36;94024.38;;;11.58;100.00
8334;BME280;4204;43.004;23.052;2023-05-19T03:44:05;94030.97;;;11.61;100.00
8334;BME280;4204;43.004;23.052;2023-05-19T03:46:33;94033.94;;;11.59;100.00
8334;BME280;4204;43.004;23.052;2023-05-19T03:49:39;94035.22;;;11.79;100.00
8334;BME280;4204;43.004;23.052;2023-05-19T03:52:27;94033.63;;;12.03;100.00
8334;BME280;4204;43.004;23.052;2023-05-19T03:55:17;94025.44;;;12.08;100.00
8334;BME280;4204;43.004;23.052;2023-05-19T03:57:46;94036.28;;;12.12;100.00
8334;BME280;4204;43.004;23.052;2023-05-19T04:00:16;94028.09;;;12.17;100.00
8334;BME280;4204;43.004;23.052;2023-05-19T04:02:44;94037.06;;;12.12;100.00
8334;BME280;4204;43.004;23.052;2023-05-19T04:05:13;94032.97;;;12.06;100.00
8334;BME280;4204;43.004;23.052;2023-05-19T04:07:41;94039.88;;;12.16;100.00
8334;BME280;4204;43.004;23.052;2023-05-19T04:10:11;94048.47;;;12.30;100.00
8334;BME280;4204;43.004;23.052;2023-05-19T04:12:39;94055.88;;;12.33;100.00
8334;BME280;4204;43.004;23.052;2023-05-19T04:15:07;94049.09;;;12.36;100.00
8334;BME280;4204;43.004;23.052;2023-05-19T04:17:38;94042.66;;;12.37;100.00
8334;BME280;4204;43.004;23.052;2023-05-19T04:20:07;94050.34;;;12.30;100.00
8334;BME280;4204;43.004;23.052;2023-05-19T04:22:35;94049.63;;;12.12;100.00
8334;BME280;4204;43.004;23.052;2023-05-19T04:25:03;94050.06;;;12.23;100.00
8334;BME280;4204;43.004;23.052;2023-05-19T04:27:31;94047.22;;;12.28;100.00
8334;BME280;4204;43.004;23.052;2023-05-19T04:30:02;94050.56;;;12.07;100.00
8334;BME280;4204;43.004;23.052;2023-05-19T04:32:32;94028.16;;;12.00;100.00
8334;BME280;4204;43.004;23.052;2023-05-19T04:35:01;94041.78;;;12.07;100.00
8334;BME280;4204;43.004;23.052;2023-05-19T04:37:29;94056.03;;;12.02;100.00
8334;BME280;4204;43.004;23.052;2023-05-19T04:39:58;94037.38;;;12.02;100.00
8334;BME280;4204;43.004;23.052;2023-05-19T04:42:27;94047.28;;;12.02;100.00
8334;BME280;4204;43.004;23.052;2023-05-19T04:44:56;94053.38;;;11.94;100.00
8334;BME280;4204;43.004;23.052;2023-05-19T04:47:27;94051.38;;;11.91;100.00
8334;BME280;4204;43.004;23.052;2023-05-19T04:49:55;94054.63;;;11.96;100.00
8334;BME280;4204;43.004;23.052;2023-05-19T04:52:27;94052.09;;;12.17;100.00
8334;BME280;4204;43.004;23.052;2023-05-19T04:54:55;94050.38;;;12.21;100.00
8334;BME280;4204;43.004;23.052;2023-05-19T04:57:24;94049.28;;;12.22;100.00
8334;BME280;4204;43.004;23.052;2023-05-19T04:59:52;94048.47;;;12.30;100.00
8334;BME280;4204;43.004;23.052;2023-05-19T05:02:25;94060.09;;;12.34;100.00
8334;BME280;4204;43.004;23.052;2023-05-19T05:04:54;94043.00;;;12.35;100.00
8334;BME280;4204;43.004;23.052;2023-05-19T05:07:22;94048.13;;;12.40;100.00
8334;BME280;4204;43.004;23.052;2023-05-19T05:09:53;94056.72;;;12.54;100.00
8334;BME280;4204;43.004;23.052;2023-05-19T05:12:21;94063.00;;;12.58;100.00
8334;BME280;4204;43.004;23.052;2023-05-19T05:14:50;94066.91;;;12.69;100.00
8334;BME280;4204;43.004;23.052;2023-05-19T05:17:19;94061.88;;;12.68;100.00
8334;BME280;4204;43.004;23.052;2023-05-19T05:19:48;94071.75;;;12.67;100.00
8334;BME280;4204;43.004;23.052;2023-05-19T05:22:16;94069.41;;;12.74;100.00
8334;BME280;4204;43.004;23.052;2023-05-19T05:24:44;94065.00;;;12.78;100.00
8334;BME280;4204;43.004;23.052;2023-05-19T05:27:14;94075.59;;;12.87;100.00
8334;BME280;4204;43.004;23.052;2023-05-19T05:29:42;94071.41;;;12.77;100.00
8334;BME280;4204;43.004;23.052;2023-05-19T05:32:09;94069.69;;;12.73;100.00
8334;BME280;4204;43.004;23.052;2023-05-19T05:34:37;94064.34;;;12.81;100.00
8334;BME280;4204;43.004;23.052;2023-05-19T05:37:07;94067.09;;;12.93;100.00
8334;BME280;4204;43.004;23.052;2023-05-19T05:39:36;94064.28;;;12.98;100.00
8334;BME280;4204;43.004;23.052;2023-05-19T05:42:04;94066.28;;;13.01;100.00
8334;BME280;4204;43.004;23.052;2023-05-19T05:44:36;94071.00;;;13.13;100.00
8334;BME280;4204;43.004;23.052;2023-05-19T05:47:06;94072.09;;;13.03;100.00
8334;BME280;4204;43.004;23.052;2023-05-19T05:49:35;94075.88;;;13.11;100.00
8334;BME280;4204;43.004;23.052;2023-05-19T05:52:04;94076.78;;;13.15;100.00
8334;BME280;4204;43.004;23.052;2023-05-19T05:54:39;94082.59;;;13.17;100.00
8334;BME280;4204;43.004;23.052;2023-05-19T05:57:09;94084.75;;;13.24;100.00
8334;BME280;4204;43.004;23.052;2023-05-19T05:59:39;94093.75;;;13.48;100.00
8334;BME280;4204;43.004;23.052;2023-05-19T06:02:07;94091.63;;;13.33;100.00
8334;BME280;4204;43.004;23.052;2023-05-19T06:04:35;94102.13;;;13.38;100.00
8334;BME280;4204;43.004;23.052;2023-05-19T06:07:04;94095.06;;;13.34;100.00
8334;BME280;4204;43.004;23.052;2023-05-19T06:09:35;94096.84;;;13.30;100.00
8334;BME280;4204;43.004;23.052;2023-05-19T06:12:06;94107.97;;;13.32;100.00
8334;BME280;4204;43.004;23.052;2023-05-19T06:14:41;94109.31;;;13.46;100.00
8334;BME280;4204;43.004;23.052;2023-05-19T06:17:23;94106.69;;;13.38;100.00
8334;BME280;4204;43.004;23.052;2023-05-19T06:19:52;94112.19;;;13.33;100.00
8334;BME280;4204;43.004;23.052;2023-05-19T06:22:20;94107.66;;;13.33;100.00
8334;BME280;4204;43.004;23.052;2023-05-19T06:24:48;94113.00;;;13.33;100.00
8334;BME280;4204;43.004;23.052;2023-05-19T06:27:16;94116.13;;;13.35;100.00
8334;BME280;4204;43.004;23.052;2023-05-19T06:29:45;94118.41;;;13.45;100.00
8334;BME280;4204;43.004;23.052;2023-05-19T06:32:13;94120.50;;;13.40;100.00
8334;BME280;4204;43.004;23.052;2023-05-19T06:34:41;94117.16;;;13.43;100.00
8334;BME280;4204;43.004;23.052;2023-05-19T06:37:09;94125.31;;;13.55;100.00
8334;BME280;4204;43.004;23.052;2023-05-19T06:39:37;94120.97;;;13.71;100.00
8334;BME280;4204;43.004;23.052;2023-05-19T06:42:05;94118.88;;;13.76;100.00
8334;BME280;4204;43.004;23.052;2023-05-19T06:45:10;94121.03;;;14.04;100.00
8334;BME280;4204;43.004;23.052;2023-05-19T06:47:38;94126.50;;;14.07;100.00
8334;BME280;4204;43.004;23.052;2023-05-19T06:50:08;94123.66;;;14.12;100.00
8334;BME280;4204;43.004;23.052;2023-05-19T06:52:39;94121.09;;;14.16;100.00
8334;BME280;4204;43.004;23.052;2023-05-19T06:55:07;94121.09;;;14.16;100.00
8334;BME280;4204;43.004;23.052;2023-05-19T06:57:37;94116.72;;;14.11;100.00
8334;BME280;4204;43.004;23.052;2023-05-19T07:00:07;94118.03;;;14.26;100.00
8334;BME280;4204;43.004;23.052;2023-05-19T07:02:39;94121.81;;;14.45;100.00
8334;BME280;4204;43.004;23.052;2023-05-19T07:05:08;94119.22;;;14.37;100.00
8334;BME280;4204;43.004;23.052;2023-05-19T07:07:36;94117.34;;;14.37;100.00
8334;BME280;4204;43.004;23.052;2023-05-19T07:10:07;94117.38;;;14.49;100.00
8334;BME280;4204;43.004;23.052;2023-05-19T07:12:34;94121.06;;;14.57;100.00
8334;BME280;4204;43.004;23.052;2023-05-19T07:15:06;94129.94;;;14.70;100.00
8334;BME280;4204;43.004;23.052;2023-05-19T07:17:35;94120.81;;;14.83;100.00
8334;BME280;4204;43.004;23.052;2023-05-19T07:20:05;94119.97;;;15.03;100.00
8334;BME280;4204;43.004;23.052;2023-05-19T07:22:35;94126.13;;;15.03;100.00
8334;BME280;4204;43.004;23.052;2023-05-19T07:25:05;94127.81;;;15.08;100.00
8334;BME280;4204;43.004;23.052;2023-05-19T07:27:33;94130.78;;;15.06;100.00
8334;BME280;4204;43.004;23.052;2023-05-19T07:30:02;94129.25;;;15.17;100.00
8334;BME280;4204;43.004;23.052;2023-05-19T07:32:30;94122.53;;;14.99;100.00
8334;BME280;4204;43.004;23.052;2023-05-19T07:34:58;94127.25;;;15.26;100.00
8334;BME280;4204;43.004;23.052;2023-05-19T07:37:27;94138.81;;;15.51;100.00
8334;BME280;4204;43.004;23.052;2023-05-19T07:39:55;94130.75;;;15.63;100.00
8334;BME280;4204;43.004;23.052;2023-05-19T07:42:23;94132.78;;;15.66;100.00
8334;BME280;4204;43.004;23.052;2023-05-19T07:44:51;94130.28;;;15.85;100.00
8334;BME280;4204;43.004;23.052;2023-05-19T07:47:19;94132.31;;;15.88;100.00
8334;BME280;4204;43.004;23.052;2023-05-19T07:49:46;94131.84;;;15.98;100.00
8334;BME280;4204;43.004;23.052;2023-05-19T07:52:14;94134.50;;;16.10;100.00
8334;BME280;4204;43.004;23.052;2023-05-19T07:54:44;94118.78;;;16.25;100.00
8334;BME280;4204;43.004;23.052;2023-05-19T07:57:12;94132.06;;;16.33;100.00
8334;BME280;4204;43.004;23.052;2023-05-19T07:59:40;94126.00;;;16.48;100.00
8334;BME280;4204;43.004;23.052;2023-05-19T08:02:08;94126.19;;;16.55;100.00
8334;BME280;4204;43.004;23.052;2023-05-19T08:04:36;94130.56;;;16.60;100.00
8334;BME280;4204;43.004;23.052;2023-05-19T08:07:04;94133.94;;;16.57;100.00
8334;BME280;4204;43.004;23.052;2023-05-19T08:09:32;94128.44;;;16.53;100.00
8334;BME280;4204;43.004;23.052;2023-05-19T08:12:01;94138.72;;;16.63;100.00
8334;BME280;4204;43.004;23.052;2023-05-19T08:14:30;94122.44;;;16.72;100.00
8334;BME280;4204;43.004;23.052;2023-05-19T08:16:58;94120.66;;;16.91;100.00
8334;BME280;4204;43.004;23.052;2023-05-19T08:19:26;94114.63;;;16.94;100.00
8334;BME280;4204;43.004;23.052;2023-05-19T08:21:54;94119.13;;;17.06;100.00
8334;BME280;4204;43.004;23.052;2023-05-19T08:24:22;94127.03;;;17.15;100.00
8334;BME280;4204;43.004;23.052;2023-05-19T08:26:50;94121.94;;;17.25;100.00
8334;BME280;4204;43.004;23.052;2023-05-19T08:29:20;94122.34;;;17.43;100.00
8334;BME280;4204;43.004;23.052;2023-05-19T08:31:47;94124.25;;;17.42;100.00
8334;BME280;4204;43.004;23.052;2023-05-19T08:34:15;94126.47;;;17.52;100.00
8334;BME280;4204;43.004;23.052;2023-05-19T08:36:43;94121.84;;;17.53;100.00
8334;BME280;4204;43.004;23.052;2023-05-19T08:39:11;94114.66;;;17.57;100.00
8334;BME280;4204;43.004;23.052;2023-05-19T08:41:39;94121.00;;;17.64;100.00
8334;BME280;4204;43.004;23.052;2023-05-19T08:44:07;94123.06;;;17.71;100.00
8334;BME280;4204;43.004;23.052;2023-05-19T08:46:36;94116.09;;;17.86;100.00
8334;BME280;4204;43.004;23.052;2023-05-19T08:49:07;94120.56;;;17.97;100.00
8334;BME280;4204;43.004;23.052;2023-05-19T08:51:42;94113.03;;;18.22;100.00
8334;BME280;4204;43.004;23.052;2023-05-19T08:54:14;94105.31;;;18.39;100.00
8334;BME280;4204;43.004;23.052;2023-05-19T08:56:43;94115.91;;;18.48;100.00
8334;BME280;4204;43.004;23.052;2023-05-19T08:59:12;94105.66;;;18.53;100.00
8334;BME280;4204;43.004;23.052;2023-05-19T09:01:43;94107.63;;;18.56;100.00
8334;BME280;4204;43.004;23.052;2023-05-19T09:04:12;94111.50;;;18.59;100.00
8334;BME280;4204;43.004;23.052;2023-05-19T09:06:40;94107.69;;;18.60;100.00
8334;BME280;4204;43.004;23.052;2023-05-19T09:09:10;94114.06;;;18.52;100.00
8334;BME280;4204;43.004;23.052;2023-05-19T09:11:38;94103.84;;;18.61;100.00
8334;BME280;4204;43.004;23.052;2023-05-19T09:14:05;94098.66;;;18.72;100.00
8334;BME280;4204;43.004;23.052;2023-05-19T09:16:33;94099.75;;;18.67;100.00
8334;BME280;4204;43.004;23.052;2023-05-19T09:19:02;94093.56;;;18.67;100.00
8334;BME280;4204;43.004;23.052;2023-05-19T09:21:31;94100.78;;;18.82;100.00
8334;BME280;4204;43.004;23.052;2023-05-19T09:24:03;94098.16;;;18.85;100.00
8334;BME280;4204;43.004;23.052;2023-05-19T09:26:35;94095.88;;;18.87;100.00
8334;BME280;4204;43.004;23.052;2023-05-19T09:29:11;94085.22;;;18.94;100.00
8334;BME280;4204;43.004;23.052;2023-05-19T09:31:42;94094.34;;;19.09;100.00
8334;BME280;4204;43.004;23.052;2023-05-19T09:34:15;94099.88;;;19.16;100.00
8334;BME280;4204;43.004;23.052;2023-05-19T09:36:44;94093.03;;;19.22;100.00
8334;BME280;4204;43.004;23.052;2023-05-19T09:39:15;94087.13;;;19.35;100.00
8334;BME280;4204;43.004;23.052;2023-05-19T09:41:44;94086.34;;;19.35;100.00
8334;BME280;4204;43.004;23.052;2023-05-19T09:44:12;94092.66;;;19.43;100.00
8334;BME280;4204;43.004;23.052;2023-05-19T09:46:46;94094.94;;;19.67;100.00
8334;BME280;4204;43.004;23.052;2023-05-19T09:49:19;94108.19;;;19.75;100.00
8334;BME280;4204;43.004;23.052;2023-05-19T09:51:49;94104.28;;;19.99;100.00
8334;BME280;4204;43.004;23.052;2023-05-19T09:54:19;94082.00;;;20.32;100.00
8334;BME280;4204;43.004;23.052;2023-05-19T09:56:50;94097.56;;;20.42;100.00
8334;BME280;4204;43.004;23.052;2023-05-19T09:59:23;94106.81;;;20.41;100.00
8334;BME280;4204;43.004;23.052;2023-05-19T10:01:53;94090.19;;;20.39;100.00
8334;BME280;4204;43.004;23.052;2023-05-19T10:04:23;94077.84;;;20.71;100.00
8334;BME280;4204;43.004;23.052;2023-05-19T10:06:52;94069.00;;;20.77;100.00
8334;BME280;4204;43.004;23.052;2023-05-19T10:09:22;94077.66;;;20.90;100.00
8334;BME280;4204;43.004;23.052;2023-05-19T10:11:50;94074.09;;;20.82;100.00
8334;BME280;4204;43.004;23.052;2023-05-19T10:14:21;94074.28;;;21.00;100.00
8334;BME280;4204;43.004;23.052;2023-05-19T10:16:50;94080.41;;;20.93;100.00
8334;BME280;4204;43.004;23.052;2023-05-19T10:19:20;94074.38;;;21.07;100.00
8334;BME280;4204;43.004;23.052;2023-05-19T10:21:50;94077.06;;;21.04;100.00
8334;BME280;4204;43.004;23.052;2023-05-19T10:24:18;94074.91;;;20.86;100.00
8334;BME280;4204;43.004;23.052;2023-05-19T10:26:49;94076.41;;;20.84;100.00
8334;BME280;4204;43.004;23.052;2023-05-19T10:29:22;94078.84;;;20.92;100.00
8334;BME280;4204;43.004;23.052;2023-05-19T10:31:52;94065.31;;;20.92;100.00
8334;BME280;4204;43.004;23.052;2023-05-19T10:34:44;94067.22;;;20.88;100.00
8334;BME280;4204;43.004;23.052;2023-05-19T10:37:23;94068.00;;;20.89;100.00
8334;BME280;4204;43.004;23.052;2023-05-19T10:39:56;94064.72;;;21.06;100.00
8334;BME280;4204;43.004;23.052;2023-05-19T10:42:32;94067.84;;;21.12;100.00
8334;BME280;4204;43.004;23.052;2023-05-19T10:45:10;94070.94;;;21.10;100.00
8334;BME280;4204;43.004;23.052;2023-05-19T10:47:40;94061.75;;;21.22;100.00
8334;BME280;4204;43.004;23.052;2023-05-19T10:50:07;94055.72;;;21.39;100.00
8334;BME280;4204;43.004;23.052;2023-05-19T10:52:38;94052.25;;;21.38;100.00
8334;BME280;4204;43.004;23.052;2023-05-19T10:55:07;94064.94;;;21.31;100.00
8334;BME280;4204;43.004;23.052;2023-05-19T10:57:35;94061.34;;;21.20;100.00
8334;BME280;4204;43.004;23.052;2023-05-19T11:00:05;94061.03;;;21.25;100.00
8334;BME280;4204;43.004;23.052;2023-05-19T11:02:51;94058.88;;;21.48;100.00
8334;BME280;4204;43.004;23.052;2023-05-19T11:05:27;94047.41;;;21.61;100.00
8334;BME280;4204;43.004;23.052;2023-05-19T11:07:58;94073.56;;;21.43;100.00
8334;BME280;4204;43.004;23.052;2023-05-19T11:10:27;94042.75;;;21.62;100.00
8334;BME280;4204;43.004;23.052;2023-05-19T11:12:56;94046.81;;;21.89;100.00
8334;BME280;4204;43.004;23.052;2023-05-19T11:15:25;94047.66;;;21.93;100.00
8334;BME280;4204;43.004;23.052;2023-05-19T11:17:54;94047.59;;;21.86;100.00
8334;BME280;4204;43.004;23.052;2023-05-19T11:20:23;94046.53;;;22.01;100.00
8334;BME280;4204;43.004;23.052;2023-05-19T11:23:03;94054.09;;;21.78;100.00
8334;BME280;4204;43.004;23.052;2023-05-19T11:25:45;94044.94;;;21.93;100.00
8334;BME280;4204;43.004;23.052;2023-05-19T11:28:16;94032.16;;;21.94;100.00
8334;BME280;4204;43.004;23.052;2023-05-19T11:30:45;94036.09;;;22.07;100.00
8334;BME280;4204;43.004;23.052;2023-05-19T11:33:15;94052.31;;;22.00;100.00
8334;BME280;4204;43.004;23.052;2023-05-19T11:35:45;94037.63;;;22.04;100.00
8334;BME280;4204;43.004;23.052;2023-05-19T11:38:16;94038.84;;;22.14;100.00
8334;BME280;4204;43.004;23.052;2023-05-19T11:40:45;94026.78;;;22.01;100.00
8334;BME280;4204;43.004;23.052;2023-05-19T11:43:13;94042.31;;;22.14;100.00
8334;BME280;4204;43.004;23.052;2023-05-19T11:45:41;94045.72;;;21.43;100.00
8334;BME280;4204;43.004;23.052;2023-05-19T11:48:10;94043.72;;;20.96;100.00
8334;BME280;4204;43.004;23.052;2023-05-19T11:50:39;94027.13;;;20.98;100.00
8334;BME280;4204;43.004;23.052;2023-05-19T11:53:10;94023.41;;;21.60;100.00
8334;BME280;4204;43.004;23.052;2023-05-19T11:55:44;94044.09;;;21.82;100.00
8334;BME280;4204;43.004;23.052;2023-05-19T11:58:12;94032.47;;;21.85;100.00
8334;BME280;4204;43.004;23.052;2023-05-19T12:00:42;94029.88;;;22.03;100.00
8334;BME280;4204;43.004;23.052;2023-05-19T12:03:11;94020.50;;;21.86;100.00
8334;BME280;4204;43.004;23.052;2023-05-19T12:05:42;94011.78;;;22.21;100.00
8334;BME280;4204;43.004;23.052;2023-05-19T12:08:10;94018.47;;;22.44;100.00
8334;BME280;4204;43.004;23.052;2023-05-19T12:10:38;94024.75;;;22.63;100.00
8334;BME280;4204;43.004;23.052;2023-05-19T12:13:08;94034.72;;;22.51;100.00
8334;BME280;4204;43.004;23.052;2023-05-19T12:15:36;94007.63;;;22.44;100.00
8334;BME280;4204;43.004;23.052;2023-05-19T12:18:04;94017.69;;;22.47;100.00
8334;BME280;4204;43.004;23.052;2023-05-19T12:20:32;94013.44;;;22.50;100.00
8334;BME280;4204;43.004;23.052;2023-05-19T12:23:01;94017.78;;;22.69;100.00
8334;BME280;4204;43.004;23.052;2023-05-19T12:25:29;94019.38;;;22.84;100.00
8334;BME280;4204;43.004;23.052;2023-05-19T12:27:57;94014.34;;;22.86;100.00
8334;BME280;4204;43.004;23.052;2023-05-19T12:30:27;94007.00;;;23.00;100.00
8334;BME280;4204;43.004;23.052;2023-05-19T12:32:56;94012.03;;;22.98;100.00
8334;BME280;4204;43.004;23.052;2023-05-19T12:35:28;94024.44;;;22.96;100.00
8334;BME280;4204;43.004;23.052;2023-05-19T12:37:56;94008.53;;;23.01;100.00
8334;BME280;4204;43.004;23.052;2023-05-19T12:40:24;93992.28;;;23.05;100.00
8334;BME280;4204;43.004;23.052;2023-05-19T12:42:55;94003.50;;;23.14;100.00
8334;BME280;4204;43.004;23.052;2023-05-19T12:45:24;94000.03;;;23.03;100.00
8334;BME280;4204;43.004;23.052;2023-05-19T12:47:54;94005.44;;;23.06;100.00
8334;BME280;4204;43.004;23.052;2023-05-19T12:50:29;93996.53;;;23.02;100.00
8334;BME280;4204;43.004;23.052;2023-05-19T12:52:57;93979.47;;;22.98;100.00
8334;BME280;4204;43.004;23.052;2023-05-19T12:55:25;93986.84;;;23.22;100.00
8334;BME280;4204;43.004;23.052;2023-05-19T12:57:53;93989.56;;;23.47;100.00
8334;BME280;4204;43.004;23.052;2023-05-19T13:00:23;93984.94;;;23.48;100.00
8334;BME280;4204;43.004;23.052;2023-05-19T13:02:56;93986.88;;;23.37;100.00
8334;BME280;4204;43.004;23.052;2023-05-19T13:05:25;93979.47;;;23.30;100.00
8334;BME280;4204;43.004;23.052;2023-05-19T13:07:55;93977.53;;;22.99;100.00
8334;BME280;4204;43.004;23.052;2023-05-19T13:10:23;93981.41;;;22.98;100.00
8334;BME280;4204;43.004;23.052;2023-05-19T13:12:58;93987.63;;;22.98;100.00
8334;BME280;4204;43.004;23.052;2023-05-19T13:15:28;94003.88;;;22.88;100.00